sensor_id;sensor_type;location;lat;lon;timestamp;P1;durP1;ratioP1;P2;durP2;ratioP2
1829;SDS011;914;48.118;11.600;2023-04-24T00:00:13;3.43;;;1.20;;
1829;SDS011;914;48.118;11.600;2023-04-24T00:02:43;1.57;;;1.17;;
1829;SDS011;914;48.118;11.600;2023-04-24T00:05:16;1.37;;;1.10;;
1829;SDS011;914;48.118;11.600;2023-04-24T00:07:43;1.27;;;1.10;;
1829;SDS011;914;48.118;11.600;2023-04-24T00:10:10;2.77;;;1.27;;
1829;SDS011;914;48.118;11.600;2023-04-24T00:12:36;1.00;;;1.00;;
1829;SDS011;914;48.118;11.600;2023-04-24T00:15:03;1.97;;;0.93;;
1829;SDS011;914;48.118;11.600;2023-04-24T00:17:30;1.93;;;1.00;;
1829;SDS011;914;48.118;11.600;2023-04-24T00:19:55;1.17;;;1.10;;
1829;SDS011;914;48.118;11.600;2023-04-24T00:22:26;1.13;;;1.00;;
1829;SDS011;914;48.118;11.600;2023-04-24T00:24:53;2.30;;;1.00;;
1829;SDS011;914;48.118;11.600;2023-04-24T00:27:19;0.90;;;0.90;;
1829;SDS011;914;48.118;11.600;2023-04-24T00:29:45;1.03;;;1.00;;
1829;SDS011;914;48.118;11.600;2023-04-24T00:32:11;1.00;;;0.90;;
1829;SDS011;914;48.118;11.600;2023-04-24T00:34:37;0.90;;;0.90;;
1829;SDS011;914;48.118;11.600;2023-04-24T00:37:02;2.10;;;1.03;;
1829;SDS011;914;48.118;11.600;2023-04-24T00:39:28;1.17;;;1.07;;
1829;SDS011;914;48.118;11.600;2023-04-24T00:41:54;0.80;;;0.80;;
1829;SDS011;914;48.118;11.600;2023-04-24T00:44:20;1.70;;;1.13;;
1829;SDS011;914;48.118;11.600;2023-04-24T00:46:46;1.00;;;1.00;;
1829;SDS011;914;48.118;11.600;2023-04-24T00:49:17;0.73;;;0.73;;
1829;SDS011;914;48.118;11.600;2023-04-24T00:51:44;0.73;;;0.73;;
1829;SDS011;914;48.118;11.600;2023-04-24T00:54:11;0.70;;;0.70;;
1829;SDS011;914;48.118;11.600;2023-04-24T00:56:39;0.90;;;0.90;;
1829;SDS011;914;48.118;11.600;2023-04-24T00:59:05;0.97;;;0.80;;
1829;SDS011;914;48.118;11.600;2023-04-24T01:01:31;0.70;;;0.70;;
1829;SDS011;914;48.118;11.600;2023-04-24T01:03:57;0.80;;;0.80;;
1829;SDS011;914;48.118;11.600;2023-04-24T01:06:27;0.97;;;0.83;;
1829;SDS011;914;48.118;11.600;2023-04-24T01:08:53;0.80;;;0.77;;
1829;SDS011;914;48.118;11.600;2023-04-24T01:11:23;0.73;;;0.70;;
1829;SDS011;914;48.118;11.600;2023-04-24T01:13:50;0.80;;;0.80;;
1829;SDS011;914;48.118;11.600;2023-04-24T01:16:16;3.10;;;0.70;;
1829;SDS011;914;48.118;11.600;2023-04-24T01:18:45;1.13;;;0.80;;
1829;SDS011;914;48.118;11.600;2023-04-24T01:21:11;0.93;;;0.83;;
1829;SDS011;914;48.118;11.600;2023-04-24T01:23:40;0.87;;;0.80;;
1829;SDS011;914;48.118;11.600;2023-04-24T01:26:05;0.70;;;0.70;;
1829;SDS011;914;48.118;11.600;2023-04-24T01:28:31;0.70;;;0.70;;
1829;SDS011;914;48.118;11.600;2023-04-24T01:30:57;0.70;;;0.70;;
1829;SDS011;914;48.118;11.600;2023-04-24T01:33:24;2.23;;;0.90;;
1829;SDS011;914;48.118;11.600;2023-04-24T01:35:50;1.80;;;0.67;;
1829;SDS011;914;48.118;11.600;2023-04-24T01:38:16;2.00;;;0.73;;
1829;SDS011;914;48.118;11.600;2023-04-24T01:40:41;2.17;;;0.70;;
1829;SDS011;914;48.118;11.600;2023-04-24T01:43:07;0.63;;;0.63;;
1829;SDS011;914;48.118;11.600;2023-04-24T01:45:33;0.70;;;0.70;;
1829;SDS011;914;48.118;11.600;2023-04-24T01:47:58;0.80;;;0.80;;
1829;SDS011;914;48.118;11.600;2023-04-24T01:50:25;2.30;;;0.70;;
1829;SDS011;914;48.118;11.600;2023-04-24T01:52:51;0.60;;;0.60;;
1829;SDS011;914;48.118;11.600;2023-04-24T01:55:16;1.50;;;0.80;;
1829;SDS011;914;48.118;11.600;2023-04-24T01:57:42;0.63;;;0.63;;
1829;SDS011;914;48.118;11.600;2023-04-24T02:00:08;0.60;;;0.60;;
1829;SDS011;914;48.118;11.600;2023-04-24T02:02:37;0.70;;;0.70;;
1829;SDS011;914;48.118;11.600;2023-04-24T02:05:05;0.93;;;0.70;;
1829;SDS011;914;48.118;11.600;2023-04-24T02:07:32;0.50;;;0.50;;
1829;SDS011;914;48.118;11.600;2023-04-24T02:09:58;1.37;;;0.70;;
1829;SDS011;914;48.118;11.600;2023-04-24T02:12:23;0.60;;;0.60;;
1829;SDS011;914;48.118;11.600;2023-04-24T02:14:49;0.57;;;0.57;;
1829;SDS011;914;48.118;11.600;2023-04-24T02:17:15;0.63;;;0.60;;
1829;SDS011;914;48.118;11.600;2023-04-24T02:19:41;0.70;;;0.70;;
1829;SDS011;914;48.118;11.600;2023-04-24T02:22:07;0.73;;;0.70;;
1829;SDS011;914;48.118;11.600;2023-04-24T02:24:32;1.90;;;0.50;;
1829;SDS011;914;48.118;11.600;2023-04-24T02:26:58;0.87;;;0.63;;
1829;SDS011;914;48.118;11.600;2023-04-24T02:29:24;0.60;;;0.60;;
1829;SDS011;914;48.118;11.600;2023-04-24T02:31:49;0.60;;;0.60;;
1829;SDS011;914;48.118;11.600;2023-04-24T02:34:15;0.73;;;0.50;;
1829;SDS011;914;48.118;11.600;2023-04-24T02:36:41;0.50;;;0.50;;
1829;SDS011;914;48.118;11.600;2023-04-24T02:39:08;0.40;;;0.40;;
1829;SDS011;914;48.118;11.600;2023-04-24T02:41:34;0.87;;;0.73;;
1829;SDS011;914;48.118;11.600;2023-04-24T02:43:59;0.50;;;0.50;;
1829;SDS011;914;48.118;11.600;2023-04-24T02:46:25;0.80;;;0.50;;
1829;SDS011;914;48.118;11.600;2023-04-24T02:48:51;1.50;;;0.50;;
1829;SDS011;914;48.118;11.600;2023-04-24T02:51:16;0.50;;;0.50;;
1829;SDS011;914;48.118;11.600;2023-04-24T02:53:42;1.77;;;0.70;;
1829;SDS011;914;48.118;11.600;2023-04-24T02:56:08;0.53;;;0.53;;
1829;SDS011;914;48.118;11.600;2023-04-24T02:58:33;0.70;;;0.60;;
1829;SDS011;914;48.118;11.600;2023-04-24T03:01:00;0.67;;;0.67;;
1829;SDS011;914;48.118;11.600;2023-04-24T03:03:26;0.50;;;0.50;;
1829;SDS011;914;48.118;11.600;2023-04-24T03:05:51;0.50;;;0.50;;
1829;SDS011;914;48.118;11.600;2023-04-24T03:08:17;0.60;;;0.60;;
1829;SDS011;914;48.118;11.600;2023-04-24T03:10:43;0.60;;;0.60;;
1829;SDS011;914;48.118;11.600;2023-04-24T03:13:09;0.50;;;0.50;;
1829;SDS011;914;48.118;11.600;2023-04-24T03:15:34;2.20;;;0.97;;
1829;SDS011;914;48.118;11.600;2023-04-24T03:18:00;0.70;;;0.70;;
1829;SDS011;914;48.118;11.600;2023-04-24T03:20:26;3.77;;;0.60;;
1829;SDS011;914;48.118;11.600;2023-04-24T03:22:52;0.60;;;0.60;;
1829;SDS011;914;48.118;11.600;2023-04-24T03:25:17;0.70;;;0.70;;
1829;SDS011;914;48.118;11.600;2023-04-24T03:27:43;0.60;;;0.60;;
1829;SDS011;914;48.118;11.600;2023-04-24T03:30:08;1.27;;;0.70;;
1829;SDS011;914;48.118;11.600;2023-04-24T03:32:35;0.87;;;0.70;;
1829;SDS011;914;48.118;11.600;2023-04-24T03:35:00;0.67;;;0.67;;
1829;SDS011;914;48.118;11.600;2023-04-24T03:37:26;0.60;;;0.60;;
1829;SDS011;914;48.118;11.600;2023-04-24T03:39:52;1.43;;;0.70;;
1829;SDS011;914;48.118;11.600;2023-04-24T03:42:18;0.60;;;0.60;;
1829;SDS011;914;48.118;11.600;2023-04-24T03:44:43;1.60;;;0.80;;
1829;SDS011;914;48.118;11.600;2023-04-24T03:47:09;0.50;;;0.50;;
1829;SDS011;914;48.118;11.600;2023-04-24T03:49:35;0.73;;;0.70;;
1829;SDS011;914;48.118;11.600;2023-04-24T03:52:00;0.70;;;0.70;;
1829;SDS011;914;48.118;11.600;2023-04-24T03:54:26;1.03;;;0.70;;
1829;SDS011;914;48.118;11.600;2023-04-24T03:56:52;0.70;;;0.70;;
1829;SDS011;914;48.118;11.600;2023-04-24T03:59:20;0.70;;;0.70;;
1829;SDS011;914;48.118;11.600;2023-04-24T04:01:46;0.73;;;0.73;;
1829;SDS011;914;48.118;11.600;2023-04-24T04:04:12;1.70;;;0.80;;
1829;SDS011;914;48.118;11.600;2023-04-24T04:06:37;0.60;;;0.60;;
1829;SDS011;914;48.118;11.600;2023-04-24T04:09:04;0.60;;;0.60;;
1829;SDS011;914;48.118;11.600;2023-04-24T04:11:31;0.80;;;0.80;;
1829;SDS011;914;48.118;11.600;2023-04-24T04:13:57;0.93;;;0.70;;
1829;SDS011;914;48.118;11.600;2023-04-24T04:16:22;0.70;;;0.70;;
1829;SDS011;914;48.118;11.600;2023-04-24T04:18:48;0.77;;;0.77;;
1829;SDS011;914;48.118;11.600;2023-04-24T04:21:14;0.80;;;0.80;;
1829;SDS011;914;48.118;11.600;2023-04-24T04:23:40;1.33;;;1.03;;
1829;SDS011;914;48.118;11.600;2023-04-24T04:26:05;0.90;;;0.67;;
1829;SDS011;914;48.118;11.600;2023-04-24T04:28:31;1.33;;;0.80;;
1829;SDS011;914;48.118;11.600;2023-04-24T04:30:57;1.20;;;0.90;;
1829;SDS011;914;48.118;11.600;2023-04-24T04:33:23;2.77;;;1.00;;
1829;SDS011;914;48.118;11.600;2023-04-24T04:35:49;0.63;;;0.63;;
1829;SDS011;914;48.118;11.600;2023-04-24T04:38:19;0.90;;;0.90;;
1829;SDS011;914;48.118;11.600;2023-04-24T04:40:45;1.10;;;0.83;;
1829;SDS011;914;48.118;11.600;2023-04-24T04:43:11;0.80;;;0.80;;
1829;SDS011;914;48.118;11.600;2023-04-24T04:45:38;0.83;;;0.80;;
1829;SDS011;914;48.118;11.600;2023-04-24T04:48:05;1.00;;;0.80;;
1829;SDS011;914;48.118;11.600;2023-04-24T04:50:34;1.50;;;0.93;;
1829;SDS011;914;48.118;11.600;2023-04-24T04:53:00;1.17;;;0.70;;
1829;SDS011;914;48.118;11.600;2023-04-24T04:55:26;0.60;;;0.60;;
1829;SDS011;914;48.118;11.600;2023-04-24T04:57:51;0.60;;;0.60;;
1829;SDS011;914;48.118;11.600;2023-04-24T05:00:17;0.90;;;0.60;;
1829;SDS011;914;48.118;11.600;2023-04-24T05:02:43;2.33;;;0.60;;
1829;SDS011;914;48.118;11.600;2023-04-24T05:05:09;0.60;;;0.60;;
1829;SDS011;914;48.118;11.600;2023-04-24T05:07:35;0.60;;;0.60;;
1829;SDS011;914;48.118;11.600;2023-04-24T05:10:01;0.77;;;0.77;;
1829;SDS011;914;48.118;11.600;2023-04-24T05:12:29;0.60;;;0.60;;
1829;SDS011;914;48.118;11.600;2023-04-24T05:14:55;1.40;;;0.97;;
1829;SDS011;914;48.118;11.600;2023-04-24T05:17:20;0.50;;;0.50;;
1829;SDS011;914;48.118;11.600;2023-04-24T05:19:46;0.73;;;0.70;;
1829;SDS011;914;48.118;11.600;2023-04-24T05:22:13;2.63;;;0.50;;
1829;SDS011;914;48.118;11.600;2023-04-24T05:24:38;0.63;;;0.60;;
1829;SDS011;914;48.118;11.600;2023-04-24T05:27:04;0.67;;;0.67;;
1829;SDS011;914;48.118;11.600;2023-04-24T05:29:30;2.80;;;0.70;;
1829;SDS011;914;48.118;11.600;2023-04-24T05:31:57;0.57;;;0.50;;
1829;SDS011;914;48.118;11.600;2023-04-24T05:34:23;3.30;;;0.60;;
1829;SDS011;914;48.118;11.600;2023-04-24T05:36:49;0.60;;;0.60;;
1829;SDS011;914;48.118;11.600;2023-04-24T05:39:15;1.00;;;1.00;;
1829;SDS011;914;48.118;11.600;2023-04-24T05:41:41;0.50;;;0.50;;
1829;SDS011;914;48.118;11.600;2023-04-24T05:44:07;2.47;;;0.60;;
1829;SDS011;914;48.118;11.600;2023-04-24T05:46:33;6.40;;;1.10;;
1829;SDS011;914;48.118;11.600;2023-04-24T05:48:59;0.90;;;0.70;;
1829;SDS011;914;48.118;11.600;2023-04-24T05:51:25;1.87;;;0.80;;
1829;SDS011;914;48.118;11.600;2023-04-24T05:53:51;3.33;;;0.80;;
1829;SDS011;914;48.118;11.600;2023-04-24T05:56:17;0.60;;;0.53;;
1829;SDS011;914;48.118;11.600;2023-04-24T05:58:43;0.87;;;0.80;;
1829;SDS011;914;48.118;11.600;2023-04-24T06:01:10;0.77;;;0.77;;
1829;SDS011;914;48.118;11.600;2023-04-24T06:03:37;0.87;;;0.87;;
1829;SDS011;914;48.118;11.600;2023-04-24T06:06:05;1.13;;;0.70;;
1829;SDS011;914;48.118;11.600;2023-04-24T06:08:31;0.60;;;0.47;;
1829;SDS011;914;48.118;11.600;2023-04-24T06:10:57;0.50;;;0.50;;
1829;SDS011;914;48.118;11.600;2023-04-24T06:13:23;0.40;;;0.40;;
1829;SDS011;914;48.118;11.600;2023-04-24T06:15:49;0.57;;;0.47;;
1829;SDS011;914;48.118;11.600;2023-04-24T06:18:15;0.50;;;0.50;;
1829;SDS011;914;48.118;11.600;2023-04-24T06:20:40;2.00;;;0.50;;
1829;SDS011;914;48.118;11.600;2023-04-24T06:23:06;0.53;;;0.53;;
1829;SDS011;914;48.118;11.600;2023-04-24T06:25:32;0.50;;;0.50;;
1829;SDS011;914;48.118;11.600;2023-04-24T06:27:58;0.60;;;0.60;;
1829;SDS011;914;48.118;11.600;2023-04-24T06:30:23;0.83;;;0.60;;
1829;SDS011;914;48.118;11.600;2023-04-24T06:32:50;0.53;;;0.53;;
1829;SDS011;914;48.118;11.600;2023-04-24T06:35:15;0.50;;;0.50;;
1829;SDS011;914;48.118;11.600;2023-04-24T06:37:42;2.47;;;0.40;;
1829;SDS011;914;48.118;11.600;2023-04-24T06:40:08;0.50;;;0.50;;
1829;SDS011;914;48.118;11.600;2023-04-24T06:42:34;0.60;;;0.40;;
1829;SDS011;914;48.118;11.600;2023-04-24T06:45:00;0.40;;;0.40;;
1829;SDS011;914;48.118;11.600;2023-04-24T06:47:27;0.50;;;0.50;;
1829;SDS011;914;48.118;11.600;2023-04-24T06:49:52;1.10;;;0.77;;
1829;SDS011;914;48.118;11.600;2023-04-24T06:52:18;0.87;;;0.60;;
1829;SDS011;914;48.118;11.600;2023-04-24T06:54:44;2.57;;;0.70;;
1829;SDS011;914;48.118;11.600;2023-04-24T06:57:10;0.60;;;0.60;;
1829;SDS011;914;48.118;11.600;2023-04-24T06:59:36;1.67;;;0.60;;
1829;SDS011;914;48.118;11.600;2023-04-24T07:02:02;0.90;;;0.60;;
1829;SDS011;914;48.118;11.600;2023-04-24T07:04:28;1.30;;;0.70;;
1829;SDS011;914;48.118;11.600;2023-04-24T07:06:55;1.13;;;0.60;;
1829;SDS011;914;48.118;11.600;2023-04-24T07:09:21;2.00;;;0.57;;
1829;SDS011;914;48.118;11.600;2023-04-24T07:11:49;0.90;;;0.50;;
1829;SDS011;914;48.118;11.600;2023-04-24T07:14:15;0.53;;;0.53;;
1829;SDS011;914;48.118;11.600;2023-04-24T07:16:41;2.30;;;0.67;;
1829;SDS011;914;48.118;11.600;2023-04-24T07:19:08;2.20;;;0.60;;
1829;SDS011;914;48.118;11.600;2023-04-24T07:21:34;0.77;;;0.77;;
1829;SDS011;914;48.118;11.600;2023-04-24T07:24:00;0.90;;;0.60;;
1829;SDS011;914;48.118;11.600;2023-04-24T07:26:26;2.00;;;0.93;;
1829;SDS011;914;48.118;11.600;2023-04-24T07:28:53;0.60;;;0.60;;
1829;SDS011;914;48.118;11.600;2023-04-24T07:31:20;0.90;;;0.50;;
1829;SDS011;914;48.118;11.600;2023-04-24T07:33:46;0.70;;;0.50;;
1829;SDS011;914;48.118;11.600;2023-04-24T07:36:11;0.50;;;0.50;;
1829;SDS011;914;48.118;11.600;2023-04-24T07:38:47;1.67;;;0.50;;
1829;SDS011;914;48.118;11.600;2023-04-24T07:41:13;1.40;;;0.60;;
1829;SDS011;914;48.118;11.600;2023-04-24T07:43:39;0.47;;;0.47;;
1829;SDS011;914;48.118;11.600;2023-04-24T07:46:06;1.53;;;0.93;;
1829;SDS011;914;48.118;11.600;2023-04-24T07:48:32;0.60;;;0.60;;
1829;SDS011;914;48.118;11.600;2023-04-24T07:50:57;0.60;;;0.50;;
1829;SDS011;914;48.118;11.600;2023-04-24T07:53:24;0.70;;;0.70;;
1829;SDS011;914;48.118;11.600;2023-04-24T07:55:49;1.93;;;0.57;;
1829;SDS011;914;48.118;11.600;2023-04-24T07:58:15;0.97;;;0.80;;
1829;SDS011;914;48.118;11.600;2023-04-24T08:00:41;1.03;;;0.77;;
1829;SDS011;914;48.118;11.600;2023-04-24T08:03:06;1.13;;;0.60;;
1829;SDS011;914;48.118;11.600;2023-04-24T08:05:32;0.97;;;0.70;;
1829;SDS011;914;48.118;11.600;2023-04-24T08:07:58;0.60;;;0.60;;
1829;SDS011;914;48.118;11.600;2023-04-24T08:10:24;0.60;;;0.60;;
1829;SDS011;914;48.118;11.600;2023-04-24T08:12:50;0.40;;;0.40;;
1829;SDS011;914;48.118;11.600;2023-04-24T08:15:16;0.73;;;0.40;;
1829;SDS011;914;48.118;11.600;2023-04-24T08:17:42;1.10;;;0.40;;
1829;SDS011;914;48.118;11.600;2023-04-24T08:20:08;1.27;;;0.50;;
1829;SDS011;914;48.118;11.600;2023-04-24T08:22:38;12.73;;;0.87;;
1829;SDS011;914;48.118;11.600;2023-04-24T08:25:05;0.53;;;0.50;;
1829;SDS011;914;48.118;11.600;2023-04-24T08:27:31;1.33;;;0.70;;
1829;SDS011;914;48.118;11.600;2023-04-24T08:29:57;0.50;;;0.50;;
1829;SDS011;914;48.118;11.600;2023-04-24T08:32:26;1.47;;;0.70;;
1829;SDS011;914;48.118;11.600;2023-04-24T08:34:54;0.60;;;0.60;;
1829;SDS011;914;48.118;11.600;2023-04-24T08:37:21;0.60;;;0.57;;
1829;SDS011;914;48.118;11.600;2023-04-24T08:39:51;1.13;;;0.83;;
1829;SDS011;914;48.118;11.600;2023-04-24T08:42:17;0.60;;;0.60;;
1829;SDS011;914;48.118;11.600;2023-04-24T08:44:44;0.50;;;0.50;;
1829;SDS011;914;48.118;11.600;2023-04-24T08:47:10;2.10;;;0.80;;
1829;SDS011;914;48.118;11.600;2023-04-24T08:49:37;1.10;;;0.70;;
1829;SDS011;914;48.118;11.600;2023-04-24T08:52:04;0.93;;;0.80;;
1829;SDS011;914;48.118;11.600;2023-04-24T08:54:31;0.87;;;0.80;;
1829;SDS011;914;48.118;11.600;2023-04-24T08:56:59;0.90;;;0.90;;
1829;SDS011;914;48.118;11.600;2023-04-24T08:59:29;2.67;;;0.90;;
1829;SDS011;914;48.118;11.600;2023-04-24T09:01:56;1.40;;;1.00;;
1829;SDS011;914;48.118;11.600;2023-04-24T09:04:23;2.03;;;1.07;;
1829;SDS011;914;48.118;11.600;2023-04-24T09:06:54;0.90;;;0.90;;
1829;SDS011;914;48.118;11.600;2023-04-24T09:09:22;3.67;;;1.13;;
1829;SDS011;914;48.118;11.600;2023-04-24T09:11:49;2.53;;;1.00;;
1829;SDS011;914;48.118;11.600;2023-04-24T09:14:15;0.80;;;0.80;;
1829;SDS011;914;48.118;11.600;2023-04-24T09:16:42;1.83;;;1.00;;
1829;SDS011;914;48.118;11.600;2023-04-24T09:19:08;0.97;;;0.97;;
1829;SDS011;914;48.118;11.600;2023-04-24T09:21:33;0.70;;;0.70;;
1829;SDS011;914;48.118;11.600;2023-04-24T09:24:01;1.30;;;0.90;;
1829;SDS011;914;48.118;11.600;2023-04-24T09:26:29;0.70;;;0.70;;
1829;SDS011;914;48.118;11.600;2023-04-24T09:28:56;1.03;;;0.93;;
1829;SDS011;914;48.118;11.600;2023-04-24T09:31:22;0.80;;;0.80;;
1829;SDS011;914;48.118;11.600;2023-04-24T09:36:27;0.87;;;0.87;;
1829;SDS011;914;48.118;11.600;2023-04-24T09:39:03;2.10;;;1.07;;
1829;SDS011;914;48.118;11.600;2023-04-24T09:41:53;0.80;;;0.80;;
1829;SDS011;914;48.118;11.600;2023-04-24T09:44:24;1.70;;;0.80;;
1829;SDS011;914;48.118;11.600;2023-04-24T09:46:55;1.23;;;1.10;;
1829;SDS011;914;48.118;11.600;2023-04-24T09:49:25;0.90;;;0.90;;
1829;SDS011;914;48.118;11.600;2023-04-24T09:51:52;1.07;;;0.97;;
1829;SDS011;914;48.118;11.600;2023-04-24T09:54:28;0.80;;;0.80;;
1829;SDS011;914;48.118;11.600;2023-04-24T09:56:55;1.33;;;0.87;;
1829;SDS011;914;48.118;11.600;2023-04-24T09:59:21;0.80;;;0.80;;
1829;SDS011;914;48.118;11.600;2023-04-24T10:01:47;1.00;;;1.00;;
1829;SDS011;914;48.118;11.600;2023-04-24T10:04:24;1.00;;;0.90;;
1829;SDS011;914;48.118;11.600;2023-04-24T10:06:52;0.83;;;0.83;;
1829;SDS011;914;48.118;11.600;2023-04-24T10:09:21;0.90;;;0.90;;
1829;SDS011;914;48.118;11.600;2023-04-24T10:11:51;1.00;;;0.87;;
1829;SDS011;914;48.118;11.600;2023-04-24T10:14:22;1.10;;;1.00;;
1829;SDS011;914;48.118;11.600;2023-04-24T10:16:49;1.77;;;1.13;;
1829;SDS011;914;48.118;11.600;2023-04-24T10:19:15;1.00;;;0.93;;
1829;SDS011;914;48.118;11.600;2023-04-24T10:21:44;1.77;;;1.00;;
1829;SDS011;914;48.118;11.600;2023-04-24T10:24:17;2.67;;;1.27;;
1829;SDS011;914;48.118;11.600;2023-04-24T10:26:45;0.90;;;0.90;;
1829;SDS011;914;48.118;11.600;2023-04-24T10:29:13;1.20;;;1.10;;
1829;SDS011;914;48.118;11.600;2023-04-24T10:31:40;1.07;;;1.00;;
1829;SDS011;914;48.118;11.600;2023-04-24T10:34:06;1.73;;;1.10;;
1829;SDS011;914;48.118;11.600;2023-04-24T10:36:34;1.10;;;1.00;;
1829;SDS011;914;48.118;11.600;2023-04-24T10:39:02;1.00;;;0.90;;
1829;SDS011;914;48.118;11.600;2023-04-24T10:41:31;1.07;;;1.00;;
1829;SDS011;914;48.118;11.600;2023-04-24T10:44:04;1.10;;;1.00;;
1829;SDS011;914;48.118;11.600;2023-04-24T10:46:31;1.40;;;1.20;;
1829;SDS011;914;48.118;11.600;2023-04-24T10:48:57;0.90;;;0.90;;
1829;SDS011;914;48.118;11.600;2023-04-24T10:51:23;1.53;;;1.17;;
1829;SDS011;914;48.118;11.600;2023-04-24T10:53:51;1.20;;;1.20;;
1829;SDS011;914;48.118;11.600;2023-04-24T10:56:17;3.43;;;1.00;;
1829;SDS011;914;48.118;11.600;2023-04-24T10:58:43;1.30;;;1.20;;
1829;SDS011;914;48.118;11.600;2023-04-24T11:01:32;0.80;;;0.80;;
1829;SDS011;914;48.118;11.600;2023-04-24T11:03:58;1.20;;;0.80;;
1829;SDS011;914;48.118;11.600;2023-04-24T11:06:34;1.10;;;1.00;;
1829;SDS011;914;48.118;11.600;2023-04-24T11:09:02;6.53;;;1.40;;
1829;SDS011;914;48.118;11.600;2023-04-24T11:11:34;1.00;;;0.90;;
1829;SDS011;914;48.118;11.600;2023-04-24T11:14:01;2.27;;;1.27;;
1829;SDS011;914;48.118;11.600;2023-04-24T11:16:35;1.23;;;1.07;;
1829;SDS011;914;48.118;11.600;2023-04-24T11:27:19;0.90;;;0.80;;
1829;SDS011;914;48.118;11.600;2023-04-24T11:29:51;1.40;;;1.00;;
1829;SDS011;914;48.118;11.600;2023-04-24T11:32:41;1.47;;;1.30;;
1829;SDS011;914;48.118;11.600;2023-04-24T11:35:14;0.97;;;0.97;;
1829;SDS011;914;48.118;11.600;2023-04-24T11:37:49;1.87;;;1.17;;
1829;SDS011;914;48.118;11.600;2023-04-24T11:40:17;1.30;;;1.20;;
1829;SDS011;914;48.118;11.600;2023-04-24T11:42:48;2.10;;;1.43;;
1829;SDS011;914;48.118;11.600;2023-04-24T11:45:21;1.30;;;1.17;;
1829;SDS011;914;48.118;11.600;2023-04-24T11:47:51;1.47;;;1.10;;
1829;SDS011;914;48.118;11.600;2023-04-24T11:50:18;1.30;;;1.17;;
1829;SDS011;914;48.118;11.600;2023-04-24T11:52:45;2.20;;;1.17;;
1829;SDS011;914;48.118;11.600;2023-04-24T11:57:49;1.33;;;0.97;;
1829;SDS011;914;48.118;11.600;2023-04-24T12:00:18;1.30;;;1.20;;
1829;SDS011;914;48.118;11.600;2023-04-24T12:02:49;1.10;;;1.00;;
1829;SDS011;914;48.118;11.600;2023-04-24T12:05:24;2.03;;;0.90;;
1829;SDS011;914;48.118;11.600;2023-04-24T12:07:53;2.13;;;1.10;;
1829;SDS011;914;48.118;11.600;2023-04-24T12:10:19;1.57;;;1.10;;
1829;SDS011;914;48.118;11.600;2023-04-24T12:12:46;2.53;;;1.10;;
1829;SDS011;914;48.118;11.600;2023-04-24T12:15:12;0.93;;;0.93;;
1829;SDS011;914;48.118;11.600;2023-04-24T12:17:40;0.77;;;0.77;;
1829;SDS011;914;48.118;11.600;2023-04-24T12:20:07;1.70;;;0.93;;
1829;SDS011;914;48.118;11.600;2023-04-24T12:22:46;1.87;;;1.00;;
1829;SDS011;914;48.118;11.600;2023-04-24T12:25:13;1.07;;;1.00;;
1829;SDS011;914;48.118;11.600;2023-04-24T12:27:43;1.00;;;1.00;;
1829;SDS011;914;48.118;11.600;2023-04-24T12:30:11;1.00;;;1.00;;
1829;SDS011;914;48.118;11.600;2023-04-24T12:32:46;2.20;;;1.10;;
1829;SDS011;914;48.118;11.600;2023-04-24T12:35:13;1.60;;;0.93;;
1829;SDS011;914;48.118;11.600;2023-04-24T12:37:44;2.70;;;1.00;;
1829;SDS011;914;48.118;11.600;2023-04-24T12:40:10;0.80;;;0.80;;
1829;SDS011;914;48.118;11.600;2023-04-24T12:42:49;0.90;;;0.90;;
1829;SDS011;914;48.118;11.600;2023-04-24T12:45:17;0.90;;;0.90;;
1829;SDS011;914;48.118;11.600;2023-04-24T12:47:44;1.40;;;1.00;;
1829;SDS011;914;48.118;11.600;2023-04-24T12:50:12;0.80;;;0.80;;
1829;SDS011;914;48.118;11.600;2023-04-24T12:52:39;0.93;;;0.80;;
1829;SDS011;914;48.118;11.600;2023-04-24T12:55:05;2.27;;;1.00;;
1829;SDS011;914;48.118;11.600;2023-04-24T12:57:35;1.43;;;1.00;;
1829;SDS011;914;48.118;11.600;2023-04-24T13:00:02;1.43;;;0.93;;
1829;SDS011;914;48.118;11.600;2023-04-24T13:02:30;0.93;;;0.93;;
1829;SDS011;914;48.118;11.600;2023-04-24T13:04:56;1.03;;;0.93;;
1829;SDS011;914;48.118;11.600;2023-04-24T13:07:23;1.67;;;1.10;;
1829;SDS011;914;48.118;11.600;2023-04-24T13:09:50;3.27;;;1.00;;
1829;SDS011;914;48.118;11.600;2023-04-24T13:12:16;3.47;;;1.10;;
1829;SDS011;914;48.118;11.600;2023-04-24T13:14:42;1.00;;;0.90;;
1829;SDS011;914;48.118;11.600;2023-04-24T13:17:08;0.90;;;0.90;;
1829;SDS011;914;48.118;11.600;2023-04-24T13:19:38;1.40;;;0.90;;
1829;SDS011;914;48.118;11.600;2023-04-24T13:22:05;1.77;;;1.10;;
1829;SDS011;914;48.118;11.600;2023-04-24T13:24:32;1.50;;;1.10;;
1829;SDS011;914;48.118;11.600;2023-04-24T13:26:57;2.07;;;1.20;;
1829;SDS011;914;48.118;11.600;2023-04-24T13:29:23;2.17;;;1.10;;
1829;SDS011;914;48.118;11.600;2023-04-24T13:31:52;1.43;;;1.10;;
1829;SDS011;914;48.118;11.600;2023-04-24T13:34:23;1.27;;;1.00;;
1829;SDS011;914;48.118;11.600;2023-04-24T13:36:53;2.07;;;1.00;;
1829;SDS011;914;48.118;11.600;2023-04-24T13:39:20;1.87;;;1.10;;
1829;SDS011;914;48.118;11.600;2023-04-24T13:41:46;7.27;;;1.33;;
1829;SDS011;914;48.118;11.600;2023-04-24T13:44:13;2.33;;;1.00;;
1829;SDS011;914;48.118;11.600;2023-04-24T13:46:40;1.43;;;1.20;;
1829;SDS011;914;48.118;11.600;2023-04-24T13:49:06;2.67;;;1.20;;
1829;SDS011;914;48.118;11.600;2023-04-24T13:51:31;1.57;;;1.10;;
1829;SDS011;914;48.118;11.600;2023-04-24T13:53:57;1.73;;;1.20;;
1829;SDS011;914;48.118;11.600;2023-04-24T13:56:24;1.27;;;1.10;;
1829;SDS011;914;48.118;11.600;2023-04-24T13:58:50;1.33;;;1.23;;
1829;SDS011;914;48.118;11.600;2023-04-24T14:01:16;1.20;;;1.10;;
1829;SDS011;914;48.118;11.600;2023-04-24T14:03:42;2.17;;;1.50;;
1829;SDS011;914;48.118;11.600;2023-04-24T14:06:08;1.63;;;1.30;;
1829;SDS011;914;48.118;11.600;2023-04-24T14:08:34;2.77;;;1.33;;
1829;SDS011;914;48.118;11.600;2023-04-24T14:11:00;1.20;;;1.03;;
1829;SDS011;914;48.118;11.600;2023-04-24T14:13:25;2.53;;;1.13;;
1829;SDS011;914;48.118;11.600;2023-04-24T14:15:52;3.73;;;1.33;;
1829;SDS011;914;48.118;11.600;2023-04-24T14:18:18;1.07;;;1.03;;
1829;SDS011;914;48.118;11.600;2023-04-24T14:20:45;2.87;;;1.20;;
1829;SDS011;914;48.118;11.600;2023-04-24T14:23:11;1.50;;;1.20;;
1829;SDS011;914;48.118;11.600;2023-04-24T14:25:36;2.20;;;1.30;;
1829;SDS011;914;48.118;11.600;2023-04-24T14:28:02;2.80;;;1.17;;
1829;SDS011;914;48.118;11.600;2023-04-24T14:30:28;1.00;;;1.00;;
1829;SDS011;914;48.118;11.600;2023-04-24T14:32:53;1.67;;;1.27;;
1829;SDS011;914;48.118;11.600;2023-04-24T14:35:19;4.10;;;1.10;;
1829;SDS011;914;48.118;11.600;2023-04-24T14:37:45;0.90;;;0.90;;
1829;SDS011;914;48.118;11.600;2023-04-24T14:40:11;1.47;;;1.10;;
1829;SDS011;914;48.118;11.600;2023-04-24T14:42:36;2.10;;;1.30;;
1829;SDS011;914;48.118;11.600;2023-04-24T14:45:02;1.20;;;1.10;;
1829;SDS011;914;48.118;11.600;2023-04-24T14:47:28;3.07;;;1.17;;
1829;SDS011;914;48.118;11.600;2023-04-24T14:49:54;1.10;;;1.00;;
1829;SDS011;914;48.118;11.600;2023-04-24T14:52:20;2.60;;;1.20;;
1829;SDS011;914;48.118;11.600;2023-04-24T14:54:45;3.03;;;1.10;;
1829;SDS011;914;48.118;11.600;2023-04-24T14:57:11;2.40;;;1.00;;
1829;SDS011;914;48.118;11.600;2023-04-24T14:59:37;2.17;;;1.30;;
1829;SDS011;914;48.118;11.600;2023-04-24T15:02:02;1.50;;;1.40;;
1829;SDS011;914;48.118;11.600;2023-04-24T15:04:28;2.93;;;1.30;;
1829;SDS011;914;48.118;11.600;2023-04-24T15:06:54;2.23;;;1.20;;
1829;SDS011;914;48.118;11.600;2023-04-24T15:09:21;1.10;;;1.00;;
1829;SDS011;914;48.118;11.600;2023-04-24T15:11:48;3.57;;;1.07;;
1829;SDS011;914;48.118;11.600;2023-04-24T15:14:14;4.27;;;1.50;;
1829;SDS011;914;48.118;11.600;2023-04-24T15:16:40;1.90;;;1.10;;
1829;SDS011;914;48.118;11.600;2023-04-24T15:19:06;2.60;;;1.20;;
1829;SDS011;914;48.118;11.600;2023-04-24T15:21:31;2.40;;;1.50;;
1829;SDS011;914;48.118;11.600;2023-04-24T15:23:57;2.50;;;1.30;;
1829;SDS011;914;48.118;11.600;2023-04-24T15:26:23;1.10;;;1.00;;